Time;durP1;ratioP1;P1;durP2;ratioP2;P2;SDS_P1;SDS_P2;PMS_P1;PMS_P2;Temp;Humidity;BMP_temperature;BMP_pressure;BME280_temperature;BME280_humidity;BME280_pressure;Samples;Min_cycle;Max_cycle;Signal;HPM_P1;HPM_P2
2021/05/11 00:00:57;;;;;;;3.37;1.00;;;17.90;86.10;;;;;;4161394;28;20226;-72
2021/05/11 00:02:59;;;;;;;2.27;1.37;;;17.90;86.50;;;;;;4158499;28;20204;-72
2021/05/11 00:05:00;;;;;;;3.47;1.17;;;17.90;86.70;;;;;;4153020;28;20227;-72
2021/05/11 00:07:01;;;;;;;1.93;1.20;;;17.90;86.90;;;;;;4154782;28;20582;-72
2021/05/11 00:09:04;;;;;;;1.63;1.30;;;17.80;87.00;;;;;;4150273;28;20212;-72
2021/05/11 00:11:05;;;;;;;2.60;1.13;;;17.80;87.60;;;;;;4160988;28;20241;-72
2021/05/11 00:13:07;;;;;;;4.53;1.20;;;17.80;88.00;;;;;;4161916;28;20221;-72
2021/05/11 00:15:09;;;;;;;1.93;1.30;;;17.70;88.80;;;;;;4146418;28;20224;-72
2021/05/11 00:17:10;;;;;;;2.17;1.30;;;17.70;89.40;;;;;;4152925;28;20601;-72
2021/05/11 00:19:12;;;;;;;1.97;1.20;;;17.70;90.00;;;;;;4155246;28;20207;-72
2021/05/11 00:21:14;;;;;;;2.93;1.20;;;17.70;90.00;;;;;;4153881;28;20231;-72
2021/05/11 00:23:15;;;;;;;2.07;1.47;;;17.60;90.20;;;;;;4146407;28;20212;-72
2021/05/11 00:25:17;;;;;;;3.67;1.70;;;17.60;90.60;;;;;;4153095;28;20207;-72
2021/05/11 00:27:18;;;;;;;2.77;1.73;;;17.50;90.80;;;;;;4160668;28;20211;-72
2021/05/11 00:29:19;;;;;;;2.53;1.50;;;17.50;91.00;;;;;;4155713;28;20215;-72
2021/05/11 00:31:20;;;;;;;1.83;1.57;;;17.50;91.40;;;;;;4146939;28;20756;-72
2021/05/11 00:33:22;;;;;;;2.83;1.60;;;17.40;91.60;;;;;;4161698;28;20208;-72
2021/05/11 00:35:23;;;;;;;3.37;1.70;;;17.30;91.90;;;;;;4155388;28;20587;-72
2021/05/11 00:37:24;;;;;;;2.73;1.60;;;17.30;92.30;;;;;;4157072;28;20211;-72
2021/05/11 00:39:25;;;;;;;5.87;1.90;;;17.30;92.50;;;;;;4157520;28;20236;-72
2021/05/11 00:41:27;;;;;;;4.53;1.63;;;17.20;92.60;;;;;;4181781;22;20788;-72
2021/05/11 00:43:28;;;;;;;2.03;1.40;;;17.20;92.90;;;;;;4178739;28;20663;-72
2021/05/11 00:45:30;;;;;;;2.20;1.40;;;17.10;93.00;;;;;;4173645;28;20659;-73
2021/05/11 00:47:31;;;;;;;1.73;1.53;;;17.10;93.20;;;;;;4170390;28;20287;-72
2021/05/11 00:49:34;;;;;;;1.87;1.60;;;17.10;93.20;;;;;;4174914;28;20283;-73
2021/05/11 00:51:35;;;;;;;3.57;2.00;;;17.10;93.30;;;;;;4175357;28;20223;-73
2021/05/11 00:53:38;;;;;;;2.93;1.60;;;17.10;93.40;;;;;;4178020;28;20214;-72
2021/05/11 00:55:39;;;;;;;2.17;1.43;;;17.00;93.50;;;;;;4175646;28;20248;-74
2021/05/11 00:57:42;;;;;;;2.30;1.63;;;17.10;93.70;;;;;;4178206;28;20214;-72
2021/05/11 00:59:43;;;;;;;2.10;1.80;;;17.00;93.90;;;;;;4178655;28;20514;-73
2021/05/11 01:01:45;;;;;;;4.80;2.00;;;17.00;94.30;;;;;;4166246;28;20229;-72
2021/05/11 01:03:46;;;;;;;4.40;2.00;;;17.00;94.50;;;;;;4177061;28;20690;-72
2021/05/11 01:05:47;;;;;;;3.37;2.60;;;17.00;94.60;;;;;;4175213;28;20207;-72
2021/05/11 01:07:48;;;;;;;5.87;2.60;;;17.00;94.80;;;;;;4173220;28;20222;-73
2021/05/11 01:09:50;;;;;;;2.70;2.10;;;16.90;95.00;;;;;;4176941;28;20602;-73
2021/05/11 01:11:52;;;;;;;3.50;2.13;;;16.90;95.20;;;;;;4177981;28;20503;-73
2021/05/11 01:13:54;;;;;;;3.17;2.20;;;16.90;95.30;;;;;;4175259;28;20226;-72
2021/05/11 01:15:55;;;;;;;3.97;2.20;;;16.80;95.40;;;;;;4163340;28;20668;-75
2021/05/11 01:18:01;;;;;;;2.50;2.00;;;16.80;95.50;;;;;;4175456;28;20232;-76
2021/05/11 01:20:05;;;;;;;3.80;2.03;;;16.80;95.70;;;;;;4179376;28;20206;-76
2021/05/11 01:22:22;;;;;;;5.47;2.53;;;16.80;95.70;;;;;;4172147;28;20209;-74
2021/05/11 01:24:25;;;;;;;3.03;2.23;;;16.80;95.80;;;;;;4176378;28;20237;-74
2021/05/11 01:26:29;;;;;;;3.67;2.00;;;16.70;95.90;;;;;;4166802;28;20294;-75
2021/05/11 01:28:37;;;;;;;3.30;2.30;;;16.70;96.00;;;;;;4175895;28;20566;-73
2021/05/11 01:49:15;;;;;;;4.70;2.20;;;16.40;97.50;;;;;;4165547;28;20268;-75
2021/05/11 01:51:28;;;;;;;5.17;2.90;;;16.30;97.40;;;;;;4177179;28;20236;-75
2021/05/11 02:10:15;;;;;;;4.13;2.53;;;16.10;97.80;;;;;;4176531;28;20314;-76
2021/05/11 02:23:57;;;;;;;2.80;2.00;;;16.00;98.10;;;;;;4158557;28;20202;-73
2021/05/11 02:25:59;;;;;;;4.13;2.03;;;16.00;98.00;;;;;;4173757;28;20718;-72
2021/05/11 02:28:01;;;;;;;5.00;2.40;;;15.90;98.00;;;;;;4170025;28;20284;-73
2021/05/11 02:30:03;;;;;;;2.60;2.10;;;15.90;98.00;;;;;;4165421;28;20423;-73
2021/05/11 02:32:05;;;;;;;3.73;2.10;;;15.90;98.10;;;;;;4177705;28;20203;-75
2021/05/11 02:34:06;;;;;;;3.00;2.20;;;15.90;98.20;;;;;;4180715;28;20665;-76
2021/05/11 02:36:07;;;;;;;3.60;2.17;;;15.90;98.20;;;;;;4179204;28;20217;-76
2021/05/11 02:38:09;;;;;;;5.20;2.60;;;15.90;98.30;;;;;;4172008;28;20222;-75
2021/05/11 02:40:12;;;;;;;3.60;2.17;;;15.90;98.40;;;;;;4174324;28;20217;-76
2021/05/11 02:42:14;;;;;;;3.87;2.50;;;15.90;98.40;;;;;;4172302;28;20267;-75
2021/05/11 02:44:18;;;;;;;4.87;2.20;;;15.90;98.50;;;;;;4175830;28;20218;-76
2021/05/11 02:46:20;;;;;;;4.63;2.57;;;15.90;98.50;;;;;;4165301;28;20211;-76
2021/05/11 02:48:21;;;;;;;4.80;2.30;;;15.80;98.50;;;;;;4175256;28;20216;-76
2021/05/11 02:50:24;;;;;;;3.87;2.43;;;15.80;98.50;;;;;;4177725;28;20709;-76
2021/05/11 02:52:25;;;;;;;3.33;2.30;;;15.80;98.60;;;;;;4177604;28;20206;-75
2021/05/11 02:54:26;;;;;;;3.53;2.60;;;15.80;98.60;;;;;;4174394;28;20549;-75
2021/05/11 02:56:28;;;;;;;4.27;2.33;;;15.80;98.60;;;;;;4175084;28;20205;-75
2021/05/11 02:58:33;;;;;;;3.77;2.30;;;15.80;98.60;;;;;;4170072;28;20213;-75
2021/05/11 03:00:34;;;;;;;3.97;2.40;;;15.80;98.70;;;;;;4180355;28;20710;-75
2021/05/11 03:02:35;;;;;;;3.27;2.23;;;15.80;98.80;;;;;;4179336;28;20202;-75
2021/05/11 03:04:36;;;;;;;3.07;2.40;;;15.70;98.80;;;;;;4174815;28;20205;-75
2021/05/11 03:06:38;;;;;;;3.13;2.33;;;15.70;98.90;;;;;;4168834;28;20234;-75
2021/05/11 03:08:42;;;;;;;4.57;2.30;;;15.70;99.00;;;;;;4174485;28;20210;-75
2021/05/11 03:10:43;;;;;;;2.80;2.10;;;15.70;99.00;;;;;;4179099;28;20237;-75
2021/05/11 03:12:45;;;;;;;4.17;2.23;;;15.70;99.10;;;;;;4178915;28;20240;-75
2021/05/11 03:14:47;;;;;;;5.93;2.80;;;15.60;99.10;;;;;;4175352;28;20204;-72
2021/05/11 03:16:49;;;;;;;3.53;2.27;;;15.60;99.00;;;;;;4174785;28;20207;-72
2021/05/11 03:18:50;;;;;;;3.17;2.20;;;15.60;99.00;;;;;;4174227;28;20294;-72
2021/05/11 03:20:51;;;;;;;2.20;2.00;;;15.60;99.00;;;;;;4177271;28;20233;-73
2021/05/11 03:22:52;;;;;;;3.70;2.40;;;15.60;99.00;;;;;;4174520;28;20205;-73
2021/05/11 03:24:54;;;;;;;3.40;2.37;;;15.60;99.10;;;;;;4174118;28;20206;-73
2021/05/11 03:26:55;;;;;;;3.37;2.33;;;15.60;99.30;;;;;;4168672;28;20209;-74
2021/05/11 03:28:56;;;;;;;6.00;2.40;;;15.60;99.40;;;;;;4178815;28;20666;-74
2021/05/11 03:30:58;;;;;;;6.10;2.73;;;15.50;99.50;;;;;;4163601;28;20248;-75
2021/05/11 03:32:59;;;;;;;4.37;2.37;;;15.50;99.70;;;;;;4166013;28;20700;-75
2021/05/11 03:35:00;;;;;;;4.27;2.43;;;15.50;99.80;;;;;;4175607;28;20670;-76
2021/05/11 03:37:02;;;;;;;4.23;2.37;;;15.50;99.90;;;;;;4177576;28;20214;-76
2021/05/11 03:39:05;;;;;;;5.27;2.10;;;15.50;99.90;;;;;;4178668;28;20206;-75
2021/05/11 03:41:07;;;;;;;3.10;2.23;;;15.40;99.90;;;;;;4167128;28;20288;-75
2021/05/11 03:43:11;;;;;;;4.90;2.23;;;15.40;99.90;;;;;;4178608;28;21148;-75
2021/05/11 03:45:13;;;;;;;5.40;2.60;;;15.50;99.90;;;;;;4178826;28;20296;-74
2021/05/11 03:47:18;;;;;;;2.93;2.40;;;15.50;99.90;;;;;;4178620;28;20210;-75
2021/05/11 03:49:19;;;;;;;4.73;2.50;;;15.50;99.90;;;;;;4174828;28;20236;-75
2021/05/11 03:51:20;;;;;;;3.43;2.63;;;15.40;99.90;;;;;;4171478;28;20870;-74
2021/05/11 03:53:21;;;;;;;5.93;2.67;;;15.40;99.90;;;;;;4172209;28;20210;-74
2021/05/11 03:55:23;;;;;;;3.17;2.57;;;15.40;99.90;;;;;;4177853;28;20230;-75
2021/05/11 03:57:24;;;;;;;3.63;2.30;;;15.40;99.90;;;;;;4172012;28;20213;-74
2021/05/11 03:59:25;;;;;;;3.40;2.47;;;15.40;99.90;;;;;;4176414;28;20209;-74
2021/05/11 04:01:26;;;;;;;4.27;2.60;;;15.40;99.90;;;;;;4177302;28;20219;-74
2021/05/11 04:03:28;;;;;;;3.50;2.40;;;15.40;99.90;;;;;;4177424;28;20291;-74
2021/05/11 04:05:30;;;;;;;3.10;2.30;;;15.40;99.90;;;;;;4163545;28;20324;-74
2021/05/11 04:07:32;;;;;;;4.10;2.80;;;15.40;99.90;;;;;;4163587;28;20216;-74
2021/05/11 04:09:35;;;;;;;4.27;2.60;;;15.40;99.90;;;;;;4175453;28;20217;-75
2021/05/11 04:11:57;;;;;;;2.80;2.20;;;15.40;99.90;;;;;;4177328;28;20232;-74
2021/05/11 04:16:22;;;;;;;2.93;2.50;;;15.40;99.90;;;;;;4178317;28;20252;-74
2021/05/11 04:18:23;;;;;;;2.93;2.53;;;15.40;99.90;;;;;;4176263;28;20210;-74
2021/05/11 04:20:25;;;;;;;5.10;2.57;;;15.40;99.90;;;;;;4172971;28;22951;-74
2021/05/11 04:22:26;;;;;;;4.10;2.70;;;15.50;99.90;;;;;;4173114;28;20213;-75
2021/05/11 04:24:28;;;;;;;2.97;2.60;;;15.50;99.90;;;;;;4173505;28;20220;-75
2021/05/11 04:26:32;;;;;;;5.00;2.50;;;15.50;99.90;;;;;;4174106;28;20227;-74
2021/05/11 04:28:33;;;;;;;4.00;2.90;;;15.50;99.90;;;;;;4176426;28;20214;-75
2021/05/11 04:30:34;;;;;;;3.70;3.00;;;15.60;99.90;;;;;;4172547;28;20249;-74
2021/05/11 04:32:35;;;;;;;7.03;2.90;;;15.60;99.90;;;;;;4177494;28;20214;-74
2021/05/11 04:34:36;;;;;;;7.03;3.00;;;15.60;99.90;;;;;;4178558;28;20224;-75
2021/05/11 04:36:39;;;;;;;3.63;2.70;;;15.60;99.90;;;;;;4170134;28;20260;-74
2021/05/11 04:38:40;;;;;;;4.63;3.00;;;15.70;99.90;;;;;;4177699;28;20579;-74
2021/05/11 04:40:41;;;;;;;6.23;3.07;;;15.70;99.90;;;;;;4174087;28;20236;-74
2021/05/11 04:42:44;;;;;;;4.70;3.20;;;15.80;99.90;;;;;;4170183;28;20202;-75
2021/05/11 04:44:45;;;;;;;4.60;3.10;;;15.80;99.90;;;;;;4174215;28;20216;-75
2021/05/11 04:46:49;;;;;;;4.30;3.47;;;15.80;99.90;;;;;;4170154;28;20234;-74
2021/05/11 04:48:52;;;;;;;4.50;3.20;;;15.90;99.90;;;;;;4176119;28;20249;-74
2021/05/11 04:50:53;;;;;;;7.27;4.23;;;15.90;99.90;;;;;;4171642;28;20237;-74
2021/05/11 04:52:57;;;;;;;5.27;3.43;;;15.90;99.90;;;;;;4168609;28;20554;-75
2021/05/11 04:54:58;;;;;;;4.67;3.37;;;15.90;99.90;;;;;;4167189;28;20206;-74
2021/05/11 04:56:59;;;;;;;6.47;3.37;;;16.00;99.90;;;;;;4169655;28;20558;-76
2021/05/11 04:59:00;;;;;;;5.67;3.43;;;15.90;99.90;;;;;;4166676;28;20212;-75
2021/05/11 05:01:02;;;;;;;6.40;3.43;;;15.90;99.90;;;;;;4175813;28;20238;-76
2021/05/11 05:03:06;;;;;;;7.20;3.73;;;15.90;99.90;;;;;;4169829;28;20213;-75
2021/05/11 05:05:08;;;;;;;7.37;3.70;;;16.00;99.90;;;;;;4171795;28;20215;-76
2021/05/11 05:07:09;;;;;;;6.83;3.83;;;16.00;99.90;;;;;;4171046;28;20207;-76
2021/05/11 05:09:11;;;;;;;5.60;4.00;;;16.00;99.90;;;;;;4168225;28;20252;-75
2021/05/11 05:11:12;;;;;;;9.17;3.67;;;16.00;99.90;;;;;;4170374;28;20242;-75
2021/05/11 05:13:19;;;;;;;7.30;3.30;;;16.00;99.90;;;;;;4174198;28;20214;-75
2021/05/11 05:15:20;;;;;;;6.30;4.20;;;16.10;99.90;;;;;;4178838;28;20569;-74
2021/05/11 05:17:22;;;;;;;5.83;3.60;;;16.10;99.90;;;;;;4165135;28;20233;-74
2021/05/11 05:19:23;;;;;;;4.97;3.37;;;16.20;99.90;;;;;;4174410;28;20563;-75
2021/05/11 05:21:24;;;;;;;5.00;3.30;;;16.20;99.90;;;;;;4172243;28;20235;-74
2021/05/11 05:23:31;;;;;;;8.00;5.23;;;16.30;99.90;;;;;;4175165;28;20713;-76
2021/05/11 05:25:34;;;;;;;39.40;24.20;;;16.40;99.90;;;;;;4171712;28;20293;-77
2021/05/11 05:27:39;;;;;;;40.80;24.77;;;16.50;99.90;;;;;;4177801;28;20226;-75
2021/05/11 05:29:40;;;;;;;18.10;11.30;;;16.50;99.90;;;;;;4172550;28;20651;-75
2021/05/11 05:31:41;;;;;;;9.97;6.37;;;16.60;99.90;;;;;;4177428;28;20671;-75
2021/05/11 05:33:43;;;;;;;5.77;4.83;;;16.70;99.90;;;;;;4175726;28;20214;-73
2021/05/11 05:35:45;;;;;;;8.93;4.40;;;16.70;99.80;;;;;;4172167;28;20260;-75
2021/05/11 05:37:46;;;;;;;5.37;4.00;;;16.70;99.70;;;;;;4168695;28;20218;-74
2021/05/11 05:39:49;;;;;;;5.87;3.60;;;16.80;99.50;;;;;;4166086;28;20210;-75
2021/05/11 05:41:51;;;;;;;6.13;3.60;;;16.80;99.10;;;;;;4177940;28;20244;-75
2021/05/11 05:43:52;;;;;;;6.27;3.30;;;16.80;98.90;;;;;;4177934;28;20655;-74
2021/05/11 05:45:54;;;;;;;5.77;3.43;;;16.90;98.80;;;;;;4178918;28;20309;-74
2021/05/11 05:47:55;;;;;;;7.10;3.57;;;16.90;98.70;;;;;;4166609;28;20242;-73
2021/05/11 05:50:01;;;;;;;4.30;3.27;;;16.90;98.70;;;;;;4174121;28;20660;-73
2021/05/11 05:52:04;;;;;;;9.83;3.73;;;17.00;98.70;;;;;;4170225;28;20592;-73
2021/05/11 05:54:06;;;;;;;8.13;4.10;;;17.10;98.70;;;;;;4169136;28;20301;-74
2021/05/11 05:56:08;;;;;;;5.80;3.13;;;17.20;98.30;;;;;;4167584;28;20642;-74
2021/05/11 05:58:10;;;;;;;6.47;2.73;;;17.20;98.10;;;;;;4164992;28;20265;-74
2021/05/11 06:00:15;;;;;;;6.40;2.90;;;17.20;98.00;;;;;;4170283;28;20256;-74
2021/05/11 06:02:18;;;;;;;4.00;2.77;;;17.10;98.00;;;;;;4176702;28;20300;-73
2021/05/11 06:04:23;;;;;;;8.00;2.87;;;17.10;97.80;;;;;;4179449;28;20199;-72
2021/05/11 06:06:24;;;;;;;4.07;2.70;;;17.20;97.60;;;;;;4173474;28;20209;-72
2021/05/11 06:08:26;;;;;;;6.03;2.70;;;17.10;97.60;;;;;;4180242;28;20210;-73
2021/05/11 06:10:29;;;;;;;5.47;2.70;;;17.10;97.50;;;;;;4179980;28;20560;-72
2021/05/11 06:12:35;;;;;;;3.67;2.60;;;17.10;97.50;;;;;;4177981;28;20217;-73
2021/05/11 06:14:47;;;;;;;3.33;2.40;;;17.10;97.60;;;;;;4170615;28;20203;-74
2021/05/11 06:19:08;;;;;;;3.53;2.73;;;17.10;97.50;;;;;;4165665;28;20198;-74
2021/05/11 06:21:09;;;;;;;3.43;2.50;;;17.20;97.40;;;;;;4165971;28;20231;-74
2021/05/11 06:23:11;;;;;;;3.87;2.70;;;17.20;97.20;;;;;;4177280;28;20210;-75
2021/05/11 06:25:13;;;;;;;3.67;2.70;;;17.30;97.10;;;;;;4179230;28;20690;-74
2021/05/11 06:27:14;;;;;;;4.73;2.70;;;17.30;97.00;;;;;;4175071;28;20215;-74
2021/05/11 06:29:17;;;;;;;4.37;2.90;;;17.30;97.00;;;;;;4168404;28;20210;-74
2021/05/11 06:31:19;;;;;;;4.30;2.90;;;17.40;96.90;;;;;;4170254;28;20239;-74
2021/05/11 06:33:21;;;;;;;3.60;2.87;;;17.30;96.70;;;;;;4177481;28;20264;-75
2021/05/11 06:35:24;;;;;;;3.60;2.40;;;17.30;96.80;;;;;;4176090;28;20219;-74
2021/05/11 06:37:26;;;;;;;4.23;2.70;;;17.20;96.80;;;;;;4178629;28;20206;-74
2021/05/11 06:39:27;;;;;;;5.57;3.00;;;17.30;96.90;;;;;;4171852;28;20207;-74
2021/05/11 06:41:28;;;;;;;4.40;2.83;;;17.30;96.90;;;;;;4173124;28;20234;-74
2021/05/11 06:43:31;;;;;;;4.37;2.60;;;17.30;96.90;;;;;;4180447;28;20213;-73
2021/05/11 06:48:04;;;;;;;3.97;2.57;;;17.40;96.70;;;;;;4171988;28;20571;-73
2021/05/11 06:50:25;;;;;;;4.87;2.63;;;17.50;96.60;;;;;;4173280;28;20206;-75
2021/05/11 06:52:50;;;;;;;6.10;2.57;;;17.50;96.60;;;;;;4173511;28;20196;-74
2021/05/11 06:54:52;;;;;;;5.97;2.77;;;17.50;96.50;;;;;;4176936;28;20207;-73
2021/05/11 06:56:53;;;;;;;4.10;2.30;;;17.60;96.20;;;;;;4179529;28;20687;-73
2021/05/11 06:58:55;;;;;;;4.17;2.60;;;17.60;95.90;;;;;;4176068;28;20212;-73
2021/05/11 07:00:56;;;;;;;6.10;2.77;;;17.60;95.90;;;;;;4179436;28;20231;-73
2021/05/11 07:02:59;;;;;;;3.63;2.50;;;17.60;95.70;;;;;;4178896;28;20203;-73
2021/05/11 07:05:01;;;;;;;3.67;2.80;;;17.60;95.80;;;;;;4177193;28;20309;-73
2021/05/11 07:07:07;;;;;;;5.47;2.73;;;17.50;95.80;;;;;;4178453;28;20207;-73
2021/05/11 07:09:10;;;;;;;4.17;2.73;;;17.50;95.90;;;;;;4168553;28;20301;-73
2021/05/11 07:11:26;;;;;;;5.43;2.70;;;17.50;95.80;;;;;;4180773;28;20297;-73
2021/05/11 07:13:27;;;;;;;6.50;2.43;;;17.50;95.80;;;;;;4173483;28;20217;-73
2021/05/11 07:15:28;;;;;;;6.30;2.80;;;17.50;95.80;;;;;;4177519;28;20198;-73
2021/05/11 07:17:29;;;;;;;4.37;2.63;;;17.60;95.80;;;;;;4168846;28;20212;-73
2021/05/11 07:19:30;;;;;;;4.83;2.83;;;17.70;95.70;;;;;;4173591;28;20217;-73
2021/05/11 07:21:32;;;;;;;4.40;2.50;;;17.70;95.60;;;;;;4168710;28;20227;-73
2021/05/11 07:23:33;;;;;;;4.30;3.10;;;17.70;95.50;;;;;;4172764;28;20276;-73
2021/05/11 07:25:40;;;;;;;4.97;3.03;;;17.60;95.60;;;;;;4175078;28;20210;-73
2021/05/11 07:28:05;;;;;;;4.80;2.73;;;17.60;95.70;;;;;;4180315;28;20198;-73
2021/05/11 07:30:12;;;;;;;3.37;2.53;;;17.60;95.90;;;;;;4179331;28;20215;-73
2021/05/11 07:32:14;;;;;;;5.40;3.13;;;17.60;95.90;;;;;;4168807;28;20209;-73
2021/05/11 07:34:17;;;;;;;4.03;2.80;;;17.70;95.70;;;;;;4166641;28;20234;-73
2021/05/11 07:36:18;;;;;;;5.03;2.83;;;17.80;95.60;;;;;;4174225;28;20540;-73
2021/05/11 07:38:23;;;;;;;3.70;2.83;;;17.80;95.50;;;;;;4164863;28;20222;-73
2021/05/11 07:40:25;;;;;;;8.47;3.03;;;17.90;95.30;;;;;;4174265;28;20579;-73
2021/05/11 07:42:27;;;;;;;5.07;3.13;;;17.90;95.20;;;;;;4177829;28;20668;-73
2021/05/11 07:44:29;;;;;;;7.17;3.03;;;17.90;95.20;;;;;;4175700;28;20214;-73
2021/05/11 07:46:49;;;;;;;4.70;3.10;;;17.90;95.10;;;;;;4174993;28;20213;-73
2021/05/11 08:05:13;;;;;;;5.57;3.20;;;17.50;95.70;;;;;;4178425;28;20205;-73
2021/05/11 08:09:59;;;;;;;5.67;3.03;;;17.50;95.80;;;;;;4168479;28;20210;-73
2021/05/11 08:14:34;;;;;;;3.57;2.90;;;17.50;95.80;;;;;;4178611;28;20212;-73
2021/05/11 08:16:36;;;;;;;4.93;3.37;;;17.50;95.80;;;;;;4174565;28;20390;-73
2021/05/11 08:18:44;;;;;;;5.87;2.83;;;17.60;95.60;;;;;;4178901;28;20229;-73
2021/05/11 08:27:56;;;;;;;4.77;3.33;;;17.70;95.20;;;;;;4174565;28;20747;-73
2021/05/11 08:29:58;;;;;;;6.27;3.40;;;17.70;95.10;;;;;;4172004;28;20202;-73
2021/05/11 08:31:59;;;;;;;4.93;3.40;;;17.80;95.10;;;;;;4174001;28;20278;-73
2021/05/11 08:34:00;;;;;;;8.53;3.57;;;17.80;95.00;;;;;;4174254;28;20214;-73
2021/05/11 08:36:02;;;;;;;8.97;3.90;;;17.90;95.00;;;;;;4172416;28;20206;-73
2021/05/11 08:38:03;;;;;;;4.63;3.50;;;17.90;94.90;;;;;;4170438;28;20346;-73
2021/05/11 08:40:06;;;;;;;4.47;3.63;;;17.90;94.90;;;;;;4172964;28;20208;-73
2021/05/11 08:42:08;;;;;;;5.00;3.10;;;18.00;94.90;;;;;;4170281;28;20266;-73
2021/05/11 08:44:14;;;;;;;5.93;3.57;;;18.00;94.80;;;;;;4175349;28;20640;-74
2021/05/11 08:46:15;;;;;;;4.70;3.30;;;18.10;94.70;;;;;;4170589;28;20212;-76
2021/05/11 08:48:17;;;;;;;9.07;3.57;;;18.20;94.50;;;;;;4170459;28;20556;-75
2021/05/11 08:50:21;;;;;;;4.70;3.37;;;18.20;94.40;;;;;;4173698;28;20364;-76
2021/05/11 08:52:27;;;;;;;6.87;3.47;;;18.30;94.30;;;;;;4171205;28;20203;-75
2021/05/11 08:54:39;;;;;;;3.97;3.03;;;18.30;94.20;;;;;;4170767;28;20306;-75
2021/05/11 09:06:19;;;;;;;4.83;3.57;;;18.50;93.60;;;;;;4171727;28;20267;-76
2021/05/11 09:08:40;;;;;;;5.63;3.53;;;18.60;93.60;;;;;;4175552;28;20217;-76
2021/05/11 09:16:12;;;;;;;3.97;3.10;;;18.80;93.20;;;;;;4174325;28;20236;-75
2021/05/11 09:25:22;;;;;;;5.67;3.70;;;19.20;92.50;;;;;;4171702;28;20232;-76
2021/05/11 09:27:29;;;;;;;5.37;3.60;;;19.30;92.40;;;;;;4171601;28;20213;-76
2021/05/11 09:29:40;;;;;;;5.10;3.80;;;19.30;92.30;;;;;;4176444;28;20213;-76
2021/05/11 09:31:54;;;;;;;4.97;3.70;;;19.40;92.10;;;;;;4175088;28;20241;-76
2021/05/11 09:34:10;;;;;;;5.83;3.63;;;19.50;92.10;;;;;;4178792;28;20305;-76
2021/05/11 09:55:01;;;;;;;5.90;4.30;;;20.50;90.00;;;;;;4169233;28;20238;-76
2021/05/11 09:57:19;;;;;;;6.57;4.13;;;20.70;89.20;;;;;;4173238;28;20194;-76
2021/05/11 09:59:46;;;;;;;8.63;4.17;;;20.70;88.60;;;;;;4170658;28;20679;-75
2021/05/11 10:36:24;;;;;;;4.97;4.27;;;22.20;80.50;;;;;;4173782;28;20209;-76
2021/05/11 10:47:26;;;;;;;5.37;3.67;;;23.30;74.80;;;;;;4179345;28;20202;-76
2021/05/11 10:49:29;;;;;;;5.20;3.73;;;23.50;73.90;;;;;;4173130;28;20268;-76
2021/05/11 10:51:31;;;;;;;5.57;3.43;;;23.60;72.60;;;;;;4175356;28;20233;-76
2021/05/11 10:53:41;;;;;;;4.87;3.20;;;23.80;71.60;;;;;;4177655;28;20221;-75
2021/05/11 10:55:44;;;;;;;4.67;3.73;;;23.90;71.20;;;;;;4178361;28;20628;-76
2021/05/11 10:57:51;;;;;;;4.03;2.90;;;24.00;70.60;;;;;;4175846;28;20206;-76
2021/05/11 11:02:25;;;;;;;5.30;3.10;;;24.50;69.30;;;;;;4170256;28;20201;-76
2021/05/11 11:04:31;;;;;;;4.37;2.97;;;24.70;68.40;;;;;;4171118;28;20206;-76
2021/05/11 11:07:01;;;;;;;4.87;3.20;;;25.00;66.90;;;;;;4172255;28;20207;-76
2021/05/11 11:09:09;;;;;;;3.63;3.10;;;25.40;63.80;;;;;;4177439;28;20202;-76
2021/05/11 11:11:12;;;;;;;5.03;3.70;;;25.70;61.50;;;;;;4177776;28;20324;-75
2021/05/11 11:13:14;;;;;;;6.73;3.40;;;25.80;58.80;;;;;;4179492;28;20261;-75
2021/05/11 11:15:18;;;;;;;4.97;3.67;;;26.00;58.40;;;;;;4178324;28;20202;-76
2021/05/11 11:17:19;;;;;;;5.10;3.53;;;26.20;56.90;;;;;;4172056;28;20219;-77
2021/05/11 11:19:21;;;;;;;8.03;3.50;;;26.40;55.90;;;;;;4177636;28;20559;-75
2021/05/11 11:21:35;;;;;;;3.97;3.20;;;26.50;55.40;;;;;;4175040;28;20230;-78
2021/05/11 11:23:42;;;;;;;4.77;3.30;;;26.80;54.40;;;;;;4169554;28;20217;-77
2021/05/11 11:26:00;;;;;;;6.00;3.50;;;27.10;52.70;;;;;;4174521;28;20211;-76
2021/05/11 11:28:01;;;;;;;5.93;3.03;;;27.40;51.90;;;;;;4175047;28;20725;-76
2021/05/11 11:30:05;;;;;;;4.03;3.30;;;27.70;50.60;;;;;;4175281;28;20206;-78
2021/05/11 11:32:07;;;;;;;7.13;4.40;;;28.10;49.60;;;;;;4177714;28;20860;-75
2021/05/11 11:34:16;;;;;;;5.30;4.40;;;28.50;47.10;;;;;;4175821;28;20206;-74
2021/05/11 11:36:28;;;;;;;5.90;4.00;;;28.70;45.90;;;;;;4171614;28;20206;-75
2021/05/11 11:38:29;;;;;;;5.97;3.87;;;28.90;45.40;;;;;;4171768;28;20236;-76
2021/05/11 11:40:31;;;;;;;4.90;4.07;;;29.30;44.50;;;;;;4170685;28;20606;-76
2021/05/11 11:42:37;;;;;;;6.83;3.83;;;29.50;43.40;;;;;;4173942;28;20214;-77
2021/05/11 11:44:39;;;;;;;6.35;3.97;;;29.40;43.90;;;;;;4173068;28;20678;-74
2021/05/11 11:46:40;;;;;;;11.03;4.10;;;29.30;43.50;;;;;;4173340;28;20215;-74
2021/05/11 11:48:56;;;;;;;5.90;3.95;;;29.60;43.20;;;;;;4173606;28;20207;-76
2021/05/11 11:51:00;;;;;;;4.75;3.80;;;30.10;42.40;;;;;;4170031;28;20238;-74
2021/05/11 11:53:10;;;;;;;4.78;2.72;;;30.70;40.60;;;;;;4171048;28;20245;-75
2021/05/11 11:55:36;;;;;;;6.45;3.20;;;31.50;39.60;;;;;;4169661;28;20206;-75
2021/05/11 11:57:45;;;;;;;5.55;2.83;;;32.60;37.30;;;;;;4170988;28;20264;-74
2021/05/11 11:59:57;;;;;;;3.95;2.40;;;33.80;35.20;;;;;;4171790;28;20241;-76
2021/05/11 12:02:00;;;;;;;8.23;3.03;;;34.80;33.10;;;;;;4169905;28;20655;-76
2021/05/11 12:04:01;;;;;;;2.85;2.28;;;35.40;31.80;;;;;;4170866;28;20202;-76
2021/05/11 12:06:03;;;;;;;5.25;2.63;;;35.40;30.90;;;;;;4171184;28;20679;-76
2021/05/11 12:08:23;;;;;;;3.63;2.22;;;35.10;30.70;;;;;;4174792;28;20729;-76
2021/05/11 12:10:25;;;;;;;4.55;2.50;;;34.70;31.60;;;;;;4178598;28;20237;-76
2021/05/11 12:12:26;;;;;;;4.18;2.65;;;34.80;31.70;;;;;;4173855;28;20634;-76
2021/05/11 12:14:29;;;;;;;4.30;2.13;;;35.10;31.60;;;;;;4178891;28;20260;-78
2021/05/11 12:16:30;;;;;;;4.18;2.13;;;35.80;30.80;;;;;;4177688;28;20206;-77
2021/05/11 12:18:32;;;;;;;3.88;2.22;;;36.60;29.70;;;;;;4179109;28;20233;-77
2021/05/11 12:20:35;;;;;;;2.95;2.50;;;36.90;28.50;;;;;;4178645;28;20721;-77
2021/05/11 12:22:36;;;;;;;5.22;2.30;;;36.50;28.70;;;;;;4181811;28;20218;-77
2021/05/11 12:24:40;;;;;;;4.25;2.38;;;35.90;28.80;;;;;;4177883;28;20209;-77
2021/05/11 12:26:42;;;;;;;5.10;2.47;;;35.50;29.50;;;;;;4173755;28;20215;-78
2021/05/11 12:28:43;;;;;;;4.78;2.03;;;35.30;30.00;;;;;;4173889;28;20214;-77
2021/05/11 12:30:47;;;;;;;3.10;1.98;;;35.90;30.00;;;;;;4172499;28;20292;-78
2021/05/11 12:32:49;;;;;;;3.05;2.05;;;36.60;29.00;;;;;;4166329;28;20203;-78
2021/05/11 12:35:03;;;;;;;5.22;2.15;;;37.00;28.20;;;;;;4173693;28;20203;-78
2021/05/11 12:37:05;;;;;;;3.45;1.77;;;37.60;27.80;;;;;;4174862;28;20215;-77
2021/05/11 12:39:23;;;;;;;4.05;1.90;;;38.40;27.30;;;;;;4170026;28;20849;-77
2021/05/11 12:41:31;;;;;;;3.78;2.13;;;39.30;25.70;;;;;;4188761;22;20238;-74
2021/05/11 12:43:41;;;;;;;3.85;1.85;;;39.90;25.60;;;;;;4168726;28;20257;-75
2021/05/11 12:45:51;;;;;;;3.53;2.05;;;41.10;25.00;;;;;;4164794;28;20627;-74
2021/05/11 12:48:00;;;;;;;3.75;2.00;;;41.90;24.00;;;;;;4166367;28;20210;-74
2021/05/11 12:50:12;;;;;;;3.50;2.40;;;42.30;23.50;;;;;;4173855;28;20663;-74
2021/05/11 12:52:28;;;;;;;5.45;2.30;;;42.70;23.10;;;;;;4154222;28;20230;-74
2021/05/11 12:54:34;;;;;;;3.08;2.13;;;43.10;22.80;;;;;;4159654;28;20215;-75
2021/05/11 12:56:46;;;;;;;4.78;2.20;;;43.50;22.60;;;;;;4156503;28;20680;-75
2021/05/11 12:59:02;;;;;;;2.45;1.80;;;43.90;22.10;;;;;;4156533;28;20223;-75
2021/05/11 13:01:26;;;;;;;3.05;1.92;;;44.00;22.00;;;;;;4154320;28;20775;-75
2021/05/11 13:03:42;;;;;;;5.50;2.30;;;44.30;21.70;;;;;;4152468;28;20211;-75
2021/05/11 13:15:26;;;;;;;3.88;2.13;;;42.30;22.60;;;;;;4153695;28;20240;-76
2021/05/11 13:19:45;;;;;;;4.35;1.80;;;41.40;23.00;;;;;;4152730;28;20199;-74
2021/05/11 13:20:15;;;;;;;3.08;2.15;;;40.60;23.50;;;;;;4155441;28;20207;-75
2021/05/11 13:22:24;;;;;;;4.25;1.80;;;40.00;24.10;;;;;;4152664;28;20311;-75
2021/05/11 13:26:47;;;;;;;4.22;2.22;;;39.20;24.70;;;;;;4160159;28;20205;-75
2021/05/11 13:28:53;;;;;;;4.55;2.58;;;38.20;25.40;;;;;;4160710;28;20264;-75
2021/05/11 13:30:59;;;;;;;3.85;2.75;;;37.40;26.10;;;;;;4145666;28;20254;-75
2021/05/11 13:33:13;;;;;;;4.18;2.30;;;36.80;26.80;;;;;;4147023;28;20302;-74
2021/05/11 13:35:14;;;;;;;5.95;2.30;;;36.50;27.20;;;;;;4155584;28;20290;-75
2021/05/11 13:37:15;;;;;;;4.43;2.30;;;36.20;27.70;;;;;;4157518;28;20215;-74
2021/05/11 13:39:16;;;;;;;4.05;2.10;;;36.20;27.90;;;;;;4158811;28;20221;-75
2021/05/11 13:41:18;;;;;;;4.22;2.20;;;36.60;27.90;;;;;;4147003;28;20262;-75
2021/05/11 13:43:20;;;;;;;6.05;2.10;;;37.20;27.30;;;;;;4161268;28;20209;-75
2021/05/11 13:45:24;;;;;;;5.18;2.28;;;38.10;26.60;;;;;;4153770;28;20235;-75
2021/05/11 13:47:25;;;;;;;6.43;2.35;;;39.40;25.90;;;;;;4156421;28;20262;-75